createdAt,value
2019-03-19T00:01:46.966Z,3.04
2019-03-19T00:04:17.808Z,3.01
2019-03-19T00:06:48.084Z,2.89
2019-03-19T00:09:18.305Z,2.84
2019-03-19T00:11:48.518Z,2.86
2019-03-19T00:14:21.178Z,2.87
2019-03-19T00:16:51.279Z,2.99
2019-03-19T00:19:22.552Z,3.09
2019-03-19T00:21:54.184Z,3.12
2019-03-19T00:24:27.531Z,3.13
2019-03-19T00:26:57.672Z,3.23
2019-03-19T00:29:27.818Z,3.20
2019-03-19T00:32:01.112Z,3.30
2019-03-19T00:34:31.272Z,3.28
2019-03-19T00:37:02.556Z,3.27
2019-03-19T00:39:33.428Z,3.22
2019-03-19T00:42:03.574Z,3.21
2019-03-19T00:44:35.429Z,3.22
2019-03-19T00:47:06.026Z,3.33
2019-03-19T00:49:39.093Z,3.19
2019-03-19T00:52:10.611Z,3.11
2019-03-19T00:54:42.862Z,3.06
2019-03-19T00:57:13.596Z,3.03
2019-03-19T00:59:44.275Z,2.98
2019-03-19T01:02:17.463Z,2.96
2019-03-19T01:04:49.508Z,2.96
2019-03-19T01:07:20.711Z,2.98
2019-03-19T01:09:51.001Z,3.13
2019-03-19T01:12:24.333Z,3.12
2019-03-19T01:14:57.773Z,3.16
2019-03-19T01:17:27.952Z,3.21
2019-03-19T01:19:58.113Z,3.31
2019-03-19T01:22:28.272Z,3.33
2019-03-19T01:24:58.535Z,3.23
2019-03-19T01:27:28.767Z,3.08
2019-03-19T01:29:59.437Z,3.02
2019-03-19T01:32:30.065Z,3.02
2019-03-19T01:35:01.577Z,3.04
2019-03-19T01:37:34.036Z,3.13
2019-03-19T01:40:04.689Z,3.06
2019-03-19T01:42:37.778Z,3.04
2019-03-19T01:45:08.285Z,2.92
2019-03-19T01:47:38.482Z,2.91
2019-03-19T01:50:09.138Z,2.87
2019-03-19T01:52:39.298Z,2.94
2019-03-19T01:55:10.298Z,2.87
2019-03-19T01:57:40.454Z,2.91
2019-03-19T02:00:11.177Z,2.92
2019-03-19T02:02:41.467Z,3.00
2019-03-19T02:05:13.441Z,2.98
2019-03-19T02:07:43.629Z,3.02
2019-03-19T02:10:14.701Z,3.14
2019-03-19T02:12:48.334Z,3.15
2019-03-19T02:15:18.566Z,3.18
2019-03-19T02:17:50.605Z,3.20
2019-03-19T02:20:22.140Z,3.24
2019-03-19T02:22:53.603Z,3.21
2019-03-19T02:25:26.211Z,3.27
2019-03-19T02:28:01.285Z,3.27
2019-03-19T02:30:31.758Z,3.28
2019-03-19T02:33:02.736Z,3.26
2019-03-19T02:35:33.058Z,3.23
2019-03-19T02:38:03.317Z,3.30
2019-03-19T02:40:33.559Z,3.23
2019-03-19T02:43:05.109Z,3.07
2019-03-19T02:45:35.332Z,3.01
2019-03-19T02:48:05.579Z,2.89
2019-03-19T02:50:35.750Z,2.88
2019-03-19T02:53:06.459Z,2.76
2019-03-19T02:55:38.140Z,2.81
2019-03-19T02:58:08.271Z,2.73
2019-03-19T03:00:38.759Z,2.71
2019-03-19T03:03:08.978Z,2.67
2019-03-19T03:05:39.161Z,2.60
2019-03-19T03:08:09.358Z,2.59
2019-03-19T03:10:39.581Z,2.54
2019-03-19T03:13:09.779Z,2.55
2019-03-19T03:15:39.989Z,2.61
2019-03-19T03:18:10.126Z,2.55
2019-03-19T03:20:43.212Z,2.60
2019-03-19T03:23:13.375Z,2.55
2019-03-19T03:25:43.785Z,2.43
2019-03-19T03:28:17.208Z,2.55
2019-03-19T03:30:49.778Z,2.49
2019-03-19T03:33:20.103Z,2.44
2019-03-19T03:35:50.340Z,2.36
2019-03-19T03:38:23.345Z,2.39
2019-03-19T03:40:54.614Z,2.36
2019-03-19T03:43:25.381Z,2.43
2019-03-19T03:45:57.494Z,2.33
2019-03-19T03:48:29.991Z,2.34
2019-03-19T03:51:00.191Z,2.33
2019-03-19T03:53:30.321Z,2.34
2019-03-19T03:56:00.545Z,2.30
2019-03-19T03:58:30.692Z,2.35
2019-03-19T04:01:03.969Z,2.29
2019-03-19T04:03:37.837Z,2.32
2019-03-19T04:06:08.154Z,2.29
2019-03-19T04:08:38.277Z,2.29
2019-03-19T04:11:08.505Z,2.28
2019-03-19T04:13:38.616Z,2.32
2019-03-19T04:16:14.026Z,2.27
2019-03-19T04:18:46.193Z,2.27
2019-03-19T04:21:20.548Z,2.18
2019-03-19T04:23:50.711Z,2.20
2019-03-19T04:26:20.928Z,2.18
2019-03-19T04:28:52.633Z,2.19
2019-03-19T04:31:26.721Z,2.24
2019-03-19T04:34:01.430Z,2.14
2019-03-19T04:36:31.588Z,2.17
2019-03-19T04:39:08.517Z,2.28
2019-03-19T04:41:38.718Z,2.33
2019-03-19T04:44:08.901Z,2.33
2019-03-19T04:46:39.064Z,2.43
2019-03-19T04:49:16.345Z,2.46
2019-03-19T04:51:46.584Z,2.59
2019-03-19T04:54:16.750Z,2.67
2019-03-19T04:56:49.060Z,2.64
2019-03-19T04:59:19.225Z,2.64
2019-03-19T05:01:49.425Z,2.61
2019-03-19T05:04:29.354Z,2.67
2019-03-19T05:06:59.533Z,2.80
2019-03-19T05:09:29.833Z,2.72
2019-03-19T05:11:59.951Z,2.67
2019-03-19T05:14:31.262Z,2.68
2019-03-19T05:17:05.385Z,2.66
2019-03-19T05:19:46.051Z,2.59
2019-03-19T05:22:17.377Z,2.49
2019-03-19T05:24:47.517Z,2.49
2019-03-19T05:27:17.746Z,2.56
2019-03-19T05:29:49.399Z,2.65
2019-03-19T05:32:23.925Z,2.53
2019-03-19T05:35:02.018Z,2.54
2019-03-19T05:37:33.869Z,2.47
2019-03-19T05:40:06.097Z,2.48
2019-03-19T05:42:39.344Z,2.44
2019-03-19T05:47:59.701Z,2.35
2019-03-19T05:50:32.915Z,2.35
2019-03-19T05:53:03.219Z,2.35
2019-03-19T05:55:33.491Z,2.29
2019-03-19T05:58:03.741Z,2.37
2019-03-19T06:00:34.109Z,2.35
2019-03-19T06:03:04.836Z,2.28
2019-03-19T06:05:40.361Z,2.32
2019-03-19T06:08:10.587Z,2.47
2019-03-19T06:10:42.294Z,2.51
2019-03-19T06:13:12.491Z,2.66
2019-03-19T06:15:47.114Z,2.68
2019-03-19T06:18:17.326Z,2.80
2019-03-19T06:20:49.197Z,2.86
2019-03-19T06:23:19.414Z,2.92
2019-03-19T06:25:51.104Z,2.99
2019-03-19T06:28:21.467Z,3.10
2019-03-19T06:30:51.673Z,3.19
2019-03-19T06:33:23.552Z,3.11
2019-03-19T06:35:53.887Z,3.16
2019-03-19T06:38:27.337Z,3.15
2019-03-19T06:40:57.667Z,3.12
2019-03-19T06:43:31.097Z,3.02
2019-03-19T06:46:01.345Z,3.09
2019-03-19T06:48:33.068Z,3.00
2019-03-19T06:51:06.140Z,3.09
2019-03-19T06:53:36.457Z,2.93
2019-03-19T06:56:07.006Z,2.89
2019-03-19T06:58:37.251Z,2.99
2019-03-19T07:01:09.446Z,2.91
2019-03-19T07:03:39.804Z,2.98
2019-03-19T07:06:11.445Z,3.05
2019-03-19T07:08:43.205Z,3.06
2019-03-19T07:11:13.758Z,3.01
2019-03-19T07:13:45.687Z,3.01
2019-03-19T07:16:16.021Z,3.09
2019-03-19T07:18:47.302Z,3.24
2019-03-19T07:21:17.643Z,3.20
2019-03-19T07:23:47.893Z,3.34
2019-03-19T07:26:18.363Z,3.36
2019-03-19T07:28:48.629Z,3.35
2019-03-19T07:31:30.157Z,3.46
2019-03-19T07:33:50.995Z,3.48
2019-03-19T07:36:21.329Z,3.56
2019-03-19T07:38:55.467Z,3.53
2019-03-19T07:41:25.868Z,3.63
2019-03-19T07:43:56.157Z,3.78
2019-03-19T07:46:28.722Z,3.79
2019-03-19T07:49:05.293Z,3.90
2019-03-19T07:51:35.679Z,3.89
2019-03-19T07:54:06.046Z,4.01
2019-03-19T07:56:40.218Z,4.15
2019-03-19T07:59:11.099Z,4.14
2019-03-19T08:01:41.467Z,4.17
2019-03-19T08:04:11.705Z,4.18
2019-03-19T08:06:43.080Z,4.32
2019-03-19T08:09:13.632Z,4.36
2019-03-19T08:11:43.855Z,4.36
2019-03-19T08:14:14.169Z,4.40
2019-03-19T08:16:47.455Z,4.50
2019-03-19T08:19:20.168Z,4.53
2019-03-19T08:21:53.325Z,4.67
2019-03-19T08:24:24.095Z,4.76
2019-03-19T08:26:54.385Z,4.78
2019-03-19T08:29:27.737Z,4.80
2019-03-19T08:32:01.699Z,4.86
2019-03-19T08:34:31.990Z,5.02
2019-03-19T08:37:02.244Z,5.08
2019-03-19T08:39:32.482Z,5.20
2019-03-19T08:42:03.144Z,5.21
2019-03-19T08:44:33.362Z,5.32
2019-03-19T08:47:03.649Z,5.23
2019-03-19T08:49:33.965Z,5.47
2019-03-19T08:52:04.103Z,5.68
2019-03-19T08:54:35.274Z,5.97
2019-03-19T08:57:05.537Z,6.11
2019-03-19T08:59:35.726Z,6.32
2019-03-19T09:02:05.922Z,6.23
2019-03-19T09:04:36.203Z,6.33
2019-03-19T09:07:10.255Z,6.25
2019-03-19T09:09:40.500Z,6.35
2019-03-19T09:12:10.842Z,6.52
2019-03-19T09:14:41.033Z,6.52
2019-03-19T09:17:11.310Z,6.48
2019-03-19T09:19:41.592Z,6.49
2019-03-19T09:22:11.918Z,6.66
2019-03-19T09:24:42.339Z,6.73
2019-03-19T09:27:12.581Z,6.77
2019-03-19T09:29:42.941Z,6.66
2019-03-19T09:32:13.111Z,6.68
2019-03-19T09:34:43.482Z,6.87
2019-03-19T09:37:13.674Z,7.26
2019-03-19T09:39:44.115Z,7.16
2019-03-19T09:42:14.450Z,6.74
2019-03-19T09:44:44.818Z,6.54
2019-03-19T09:47:18.288Z,6.93
2019-03-19T09:49:51.555Z,7.29
2019-03-19T09:52:24.648Z,7.72
2019-03-19T09:54:57.764Z,7.58
2019-03-19T09:57:28.075Z,7.10
2019-03-19T09:59:58.542Z,7.04
2019-03-19T10:02:31.488Z,7.06
2019-03-19T10:05:03.331Z,6.94
2019-03-19T10:07:33.647Z,6.88
2019-03-19T10:10:04.343Z,6.82
2019-03-19T10:12:34.499Z,6.79
2019-03-19T10:15:08.193Z,6.84
2019-03-19T10:17:39.517Z,7.13
2019-03-19T10:20:12.878Z,7.24
2019-03-19T10:22:46.588Z,7.40
2019-03-19T10:25:17.253Z,7.62
2019-03-19T10:27:50.204Z,7.88
2019-03-19T10:30:20.577Z,7.70
2019-03-19T10:32:50.896Z,7.56
2019-03-19T10:35:21.261Z,7.54
2019-03-19T10:37:51.640Z,7.67
2019-03-19T10:40:22.124Z,7.49
2019-03-19T10:42:52.571Z,7.35
2019-03-19T10:45:24.735Z,7.62
2019-03-19T10:47:54.999Z,8.08
2019-03-19T10:50:28.387Z,7.89
2019-03-19T10:52:58.880Z,7.58
2019-03-19T10:55:29.539Z,7.64
2019-03-19T10:58:10.364Z,7.71
2019-03-19T11:00:33.949Z,8.06
2019-03-19T11:03:04.899Z,8.34
2019-03-19T11:05:35.907Z,8.39
2019-03-19T11:08:13.969Z,8.48
2019-03-19T11:10:46.359Z,8.53
2019-03-19T11:13:16.988Z,8.61
2019-03-19T11:15:47.169Z,8.55
2019-03-19T11:18:17.429Z,8.25
2019-03-19T11:20:47.747Z,8.01
2019-03-19T11:23:18.027Z,8.19
2019-03-19T11:25:54.509Z,8.20
2019-03-19T11:28:22.021Z,8.09
2019-03-19T11:30:53.733Z,8.03
2019-03-19T11:33:24.105Z,8.25
2019-03-19T11:35:54.571Z,8.29
2019-03-19T11:38:24.843Z,8.19
2019-03-19T11:40:55.125Z,8.31
2019-03-19T11:43:25.386Z,8.23
2019-03-19T11:45:59.804Z,8.16
2019-03-19T11:48:31.165Z,8.09
2019-03-19T11:51:01.558Z,8.09
2019-03-19T11:53:31.767Z,8.02
2019-03-19T11:56:03.239Z,8.13
2019-03-19T11:58:33.468Z,8.19
2019-03-19T12:01:06.048Z,8.17
2019-03-19T12:03:37.475Z,8.16
2019-03-19T12:06:07.774Z,8.19
2019-03-19T12:08:38.090Z,8.20
2019-03-19T12:11:09.365Z,8.23
2019-03-19T12:13:39.840Z,8.39
2019-03-19T12:16:09.999Z,8.34
2019-03-19T12:18:40.647Z,8.29
2019-03-19T12:21:10.789Z,8.23
2019-03-19T12:23:42.553Z,8.05
2019-03-19T12:26:15.027Z,7.76
2019-03-19T12:28:45.848Z,7.85
2019-03-19T12:31:16.001Z,7.90
2019-03-19T12:33:46.713Z,8.07
2019-03-19T12:36:19.145Z,8.15
2019-03-19T12:38:49.457Z,8.26
2019-03-19T12:41:19.748Z,8.42
2019-03-19T12:43:49.955Z,8.72
2019-03-19T12:46:20.191Z,8.78
2019-03-19T12:48:50.436Z,8.78
2019-03-19T12:51:24.476Z,9.03
2019-03-19T12:53:55.282Z,9.32
2019-03-19T12:56:29.909Z,9.00
2019-03-19T12:59:03.233Z,8.82
2019-03-19T13:01:41.221Z,8.66
2019-03-19T13:04:13.556Z,8.85
2019-03-19T13:06:43.873Z,8.87
2019-03-19T13:09:16.604Z,8.90
2019-03-19T13:11:46.834Z,8.93
2019-03-19T13:14:17.116Z,8.97
2019-03-19T13:16:47.292Z,9.09
2019-03-19T13:19:17.708Z,9.25
2019-03-19T13:21:48.012Z,9.20
2019-03-19T13:24:18.282Z,9.34
2019-03-19T13:26:48.402Z,9.34
2019-03-19T13:29:20.070Z,9.33
2019-03-19T13:31:52.206Z,9.27
2019-03-19T13:34:22.988Z,9.22
2019-03-19T13:36:53.461Z,9.11
2019-03-19T13:39:23.938Z,9.14
2019-03-19T13:41:59.270Z,9.18
2019-03-19T13:44:29.934Z,9.19
2019-03-19T13:47:00.253Z,9.04
2019-03-19T13:49:33.159Z,8.77
2019-03-19T13:52:06.558Z,8.63
2019-03-19T13:54:39.497Z,8.71
2019-03-19T13:57:09.696Z,8.73
2019-03-19T13:59:40.403Z,8.69
2019-03-19T14:02:12.863Z,8.79
2019-03-19T14:04:44.066Z,9.00
2019-03-19T14:07:14.330Z,9.04
2019-03-19T14:09:44.616Z,9.09
2019-03-19T14:12:16.633Z,9.07
2019-03-19T14:14:46.920Z,9.15
2019-03-19T14:17:17.289Z,9.26
2019-03-19T14:19:51.233Z,9.19
2019-03-19T14:22:21.948Z,9.26
2019-03-19T14:24:52.340Z,9.35
2019-03-19T14:27:23.569Z,9.42
2019-03-19T14:29:55.019Z,9.10
2019-03-19T14:32:25.375Z,9.04
2019-03-19T14:34:55.730Z,9.13
2019-03-19T14:37:26.300Z,9.09
2019-03-19T14:39:56.631Z,8.98
2019-03-19T14:42:27.463Z,8.95
2019-03-19T14:44:57.813Z,8.84
2019-03-19T14:47:28.352Z,8.96
2019-03-19T14:49:58.973Z,9.16
2019-03-19T14:52:30.550Z,9.34
2019-03-19T14:55:01.103Z,9.22
2019-03-19T14:57:31.909Z,9.19
2019-03-19T15:00:02.225Z,9.05
2019-03-19T15:02:33.945Z,8.93
2019-03-19T15:05:04.651Z,8.76
2019-03-19T15:07:34.983Z,8.74
2019-03-19T15:10:08.603Z,8.84
2019-03-19T15:12:38.783Z,8.77
2019-03-19T15:15:10.228Z,8.74
2019-03-19T15:17:42.530Z,8.71
2019-03-19T15:20:15.162Z,8.70
2019-03-19T15:22:46.431Z,8.72
2019-03-19T15:25:19.493Z,8.64
2019-03-19T15:27:50.188Z,8.80
2019-03-19T15:30:20.529Z,8.77
2019-03-19T15:32:53.723Z,8.81
2019-03-19T15:35:25.773Z,8.80
2019-03-19T15:37:56.481Z,8.71
2019-03-19T15:40:28.659Z,8.70
2019-03-19T15:43:00.854Z,8.58
2019-03-19T15:45:30.945Z,8.61
2019-03-19T15:48:02.286Z,8.64
2019-03-19T15:50:32.633Z,8.65
2019-03-19T15:53:05.111Z,8.60
2019-03-19T15:55:35.709Z,8.69
2019-03-19T15:58:06.064Z,8.50
2019-03-19T16:00:38.804Z,8.48
2019-03-19T16:03:11.448Z,8.53
2019-03-19T16:05:41.928Z,8.60
2019-03-19T16:08:13.088Z,8.71
2019-03-19T16:10:45.012Z,8.87
2019-03-19T16:13:17.683Z,8.89
2019-03-19T16:15:48.129Z,8.85
2019-03-19T16:18:18.583Z,8.84
2019-03-19T16:20:52.006Z,8.82
2019-03-19T16:23:22.308Z,8.64
2019-03-19T16:25:52.965Z,8.67
2019-03-19T16:28:23.533Z,8.69
2019-03-19T16:30:54.258Z,8.72
2019-03-19T16:33:26.524Z,8.65
2019-03-19T16:35:58.523Z,8.65
2019-03-19T16:38:28.774Z,8.65
2019-03-19T16:41:03.998Z,8.68
2019-03-19T16:43:34.363Z,8.54
2019-03-19T16:46:06.791Z,8.46
2019-03-19T16:48:40.412Z,8.43
2019-03-19T16:51:10.689Z,8.47
2019-03-19T16:53:40.881Z,8.43
2019-03-19T16:56:11.099Z,8.43
2019-03-19T16:58:43.847Z,8.39
2019-03-19T17:01:23.691Z,8.29
2019-03-19T17:03:54.856Z,8.30
2019-03-19T17:06:25.088Z,8.38
2019-03-19T17:08:58.677Z,8.37
2019-03-19T17:11:32.446Z,8.33
2019-03-19T17:14:14.812Z,8.28
2019-03-19T17:17:06.116Z,8.08
2019-03-19T17:19:41.526Z,8.02
2019-03-19T17:22:26.116Z,7.87
2019-03-19T17:25:02.425Z,7.79
2019-03-19T17:27:40.566Z,7.74
2019-03-19T17:30:17.103Z,7.67
2019-03-19T17:32:46.776Z,7.57
2019-03-19T17:35:17.675Z,7.54
2019-03-19T17:37:48.026Z,7.41
2019-03-19T17:40:22.901Z,7.38
2019-03-19T17:42:56.038Z,7.26
2019-03-19T17:45:30.320Z,7.23
2019-03-19T17:48:03.728Z,7.22
2019-03-19T17:50:34.121Z,7.27
2019-03-19T17:53:05.679Z,7.19
2019-03-19T17:55:40.580Z,7.10
2019-03-19T17:58:10.825Z,7.08
2019-03-19T18:00:43.756Z,6.98
2019-03-19T18:03:13.959Z,6.98
2019-03-19T18:05:44.333Z,6.89
2019-03-19T18:08:14.808Z,6.83
2019-03-19T18:10:51.528Z,6.73
2019-03-19T18:13:22.862Z,6.66
2019-03-19T18:15:53.099Z,6.65
2019-03-19T18:18:23.369Z,6.66
2019-03-19T18:20:59.854Z,6.61
2019-03-19T18:23:37.571Z,6.56
2019-03-19T18:26:06.705Z,6.50
2019-03-19T18:28:36.964Z,6.40
2019-03-19T18:31:07.210Z,6.37
2019-03-19T18:33:37.555Z,6.30
2019-03-19T18:36:07.755Z,6.27
2019-03-19T18:38:39.106Z,6.23
2019-03-19T18:41:11.500Z,6.20
2019-03-19T18:43:42.217Z,6.19
2019-03-19T18:46:12.620Z,6.12
2019-03-19T18:48:43.108Z,6.09
2019-03-19T18:51:13.880Z,6.03
2019-03-19T18:53:44.239Z,5.99
2019-03-19T18:56:15.817Z,5.92
2019-03-19T18:58:48.697Z,5.88
2019-03-19T19:01:20.246Z,5.81
2019-03-19T19:03:50.561Z,5.79
2019-03-19T19:06:27.205Z,5.74
2019-03-19T19:08:58.487Z,5.67
2019-03-19T19:11:29.377Z,5.63
2019-03-19T19:13:59.828Z,5.57
2019-03-19T19:16:33.382Z,5.51
2019-03-19T19:19:04.032Z,5.45
2019-03-19T19:21:35.993Z,5.40
2019-03-19T19:24:09.846Z,5.35
2019-03-19T19:26:40.115Z,5.32
2019-03-19T19:29:10.421Z,5.31
2019-03-19T19:31:43.997Z,5.27
2019-03-19T19:34:14.927Z,5.23
2019-03-19T19:36:47.588Z,5.17
2019-03-19T19:39:32.430Z,5.10
2019-03-19T19:42:03.510Z,5.06
2019-03-19T19:44:33.862Z,5.02
2019-03-19T19:47:05.910Z,4.98
2019-03-19T19:49:36.371Z,4.93
2019-03-19T19:52:07.103Z,4.90
2019-03-19T19:54:41.779Z,4.86
2019-03-19T19:57:13.129Z,4.76
2019-03-19T19:59:44.374Z,4.80
2019-03-19T20:02:14.959Z,4.76
2019-03-19T20:04:45.833Z,4.71
2019-03-19T20:07:19.500Z,4.66
2019-03-19T20:09:49.933Z,4.62
2019-03-19T20:12:20.145Z,4.63
2019-03-19T20:14:51.311Z,4.57
2019-03-19T20:17:21.647Z,4.56
2019-03-19T20:19:54.260Z,4.51
2019-03-19T20:22:24.638Z,4.49
2019-03-19T20:24:56.064Z,4.45
2019-03-19T20:27:26.530Z,4.40
2019-03-19T20:29:59.891Z,4.36
2019-03-19T20:32:33.237Z,4.33
2019-03-19T20:35:03.925Z,4.29
2019-03-19T20:37:34.424Z,4.22
2019-03-19T20:40:07.686Z,4.20
2019-03-19T20:42:38.463Z,4.16
2019-03-19T20:45:10.154Z,4.12
2019-03-19T20:47:43.193Z,4.09
2019-03-19T20:50:19.386Z,4.07
2019-03-19T20:52:56.708Z,4.03
2019-03-19T20:55:27.495Z,3.99
2019-03-19T20:58:00.687Z,3.96
2019-03-19T21:00:32.906Z,3.90
2019-03-19T21:03:13.425Z,3.87
2019-03-19T21:05:45.887Z,3.82
2019-03-19T21:08:23.268Z,3.80
2019-03-19T21:10:58.299Z,3.78
2019-03-19T21:13:30.355Z,3.74
2019-03-19T21:16:01.322Z,3.72
2019-03-19T21:18:34.132Z,3.69
2019-03-19T21:21:08.535Z,3.67
2019-03-19T21:23:39.321Z,3.65
2019-03-19T21:26:10.142Z,3.60
2019-03-19T21:28:40.568Z,3.56
2019-03-19T21:31:13.026Z,3.52
2019-03-19T21:33:51.143Z,3.47
2019-03-19T21:36:18.111Z,3.43
2019-03-19T21:38:49.426Z,3.39
2019-03-19T21:41:19.782Z,3.36
2019-03-19T21:43:50.098Z,3.34
2019-03-19T21:46:20.303Z,3.32
2019-03-19T21:48:51.014Z,3.30
2019-03-19T21:51:21.148Z,3.26
2019-03-19T21:53:51.390Z,3.21
2019-03-19T21:56:21.782Z,3.17
2019-03-19T21:58:52.048Z,3.17
2019-03-19T22:01:23.576Z,3.15
2019-03-19T22:04:03.041Z,3.12
2019-03-19T22:06:59.486Z,3.09
2019-03-19T22:09:29.898Z,3.06
2019-03-19T22:12:00.241Z,3.01
2019-03-19T22:14:32.162Z,2.99
2019-03-19T22:17:02.396Z,2.96
2019-03-19T22:19:32.726Z,2.93
2019-03-19T22:22:03.052Z,2.89
2019-03-19T22:24:34.681Z,2.84
2019-03-19T22:27:04.920Z,2.85
2019-03-19T22:29:35.404Z,2.80
2019-03-19T22:32:06.062Z,2.77
2019-03-19T22:34:43.992Z,2.76
2019-03-19T22:37:14.726Z,2.72
2019-03-19T22:39:45.663Z,2.68
2019-03-19T22:42:19.220Z,2.68
2019-03-19T22:44:49.538Z,2.65
2019-03-19T22:47:20.382Z,2.63
2019-03-19T22:49:52.354Z,2.62
2019-03-19T22:52:22.668Z,2.57
2019-03-19T22:54:53.393Z,2.53
2019-03-19T22:57:27.282Z,2.51
2019-03-19T22:59:57.632Z,2.48
2019-03-19T23:02:28.248Z,2.46
2019-03-19T23:04:58.540Z,2.47
2019-03-19T23:07:28.883Z,2.47
2019-03-19T23:09:59.024Z,2.45
2019-03-19T23:12:31.550Z,2.47
2019-03-19T23:15:01.763Z,2.48
2019-03-19T23:17:32.336Z,2.46
2019-03-19T23:20:03.962Z,2.45
2019-03-19T23:22:34.226Z,2.46
2019-03-19T23:25:05.315Z,2.44
2019-03-19T23:27:35.535Z,2.43
2019-03-19T23:30:06.642Z,2.43
2019-03-19T23:32:36.885Z,2.41
2019-03-19T23:35:07.153Z,2.38
2019-03-19T23:37:39.304Z,2.36
2019-03-19T23:40:09.728Z,2.34
2019-03-19T23:42:39.811Z,2.33
2019-03-19T23:45:10.393Z,2.30
2019-03-19T23:47:40.792Z,2.30
2019-03-19T23:50:11.649Z,2.31
2019-03-19T23:52:41.851Z,2.29
2019-03-19T23:55:13.249Z,2.27
2019-03-19T23:57:43.334Z,2.25
